Time;durP1;ratioP1;P1;durP2;ratioP2;P2;SDS_P1;SDS_P2;PMS_P1;PMS_P2;Temp;Humidity;BMP_temperature;BMP_pressure;BME280_temperature;BME280_humidity;BME280_pressure;Samples;Min_cycle;Max_cycle;Signal;HPM_P1;HPM_P2
2022/10/08 00:01:11;;;;;;;18.38;3.33;;;13.20;81.00;;;;;;5052624;28;20059;-46
2022/10/08 00:03:42;;;;;;;12.60;3.00;;;13.30;80.80;;;;;;5053680;28;20056;-46
2022/10/08 00:06:13;;;;;;;13.70;3.70;;;13.30;81.00;;;;;;5030290;28;20054;-50
2022/10/08 00:08:42;;;;;;;9.23;2.60;;;13.30;80.80;;;;;;5036247;28;20078;-46
2022/10/08 00:11:13;;;;;;;9.47;3.13;;;13.40;80.70;;;;;;5031145;28;20033;-46
2022/10/08 00:13:41;;;;;;;11.13;3.60;;;13.40;80.70;;;;;;5027314;28;20752;-45
2022/10/08 00:16:23;;;;;;;14.52;2.72;;;13.40;80.70;;;;;;5054020;28;20039;-46
2022/10/08 00:18:54;;;;;;;13.43;3.28;;;13.40;80.80;;;;;;5043861;28;20056;-45
2022/10/08 00:21:38;;;;;;;12.63;2.42;;;13.50;80.80;;;;;;5033852;28;20033;-47
2022/10/08 00:24:11;;;;;;;8.13;2.97;;;13.40;80.80;;;;;;5045691;28;20031;-47
2022/10/08 00:26:37;;;;;;;10.93;2.92;;;13.40;80.80;;;;;;5053332;28;20111;-49
2022/10/08 00:29:05;;;;;;;9.48;2.47;;;13.40;80.80;;;;;;5045708;28;20056;-48
2022/10/08 00:31:39;;;;;;;8.18;2.83;;;13.50;80.60;;;;;;5054966;28;20064;-49
2022/10/08 00:34:10;;;;;;;10.38;2.88;;;13.50;80.70;;;;;;5051183;28;20036;-48
2022/10/08 00:36:38;;;;;;;9.52;2.50;;;13.50;80.80;;;;;;5043182;28;20021;-49
2022/10/08 00:39:23;;;;;;;10.75;2.55;;;13.50;81.10;;;;;;5053495;28;20426;-45
2022/10/08 00:41:52;;;;;;;10.50;3.35;;;13.50;81.00;;;;;;5035652;28;20047;-47
2022/10/08 00:44:46;;;;;;;11.82;3.17;;;13.50;81.00;;;;;;5052571;28;20470;-46
2022/10/08 00:47:49;;;;;;;8.90;3.08;;;13.50;81.40;;;;;;5033522;28;20523;-48
2022/10/08 00:50:28;;;;;;;11.32;3.08;;;13.50;81.80;;;;;;5033914;28;20022;-49
2022/10/08 00:53:00;;;;;;;7.70;3.40;;;13.40;82.20;;;;;;5050013;28;20100;-47
2022/10/08 00:55:28;;;;;;;11.10;3.72;;;13.40;82.50;;;;;;5052597;28;20107;-49
2022/10/08 00:58:00;;;;;;;15.73;3.55;;;13.40;83.10;;;;;;5033099;28;20028;-50
2022/10/08 01:00:28;;;;;;;16.73;3.45;;;13.30;83.50;;;;;;5052608;28;20041;-47
2022/10/08 01:02:58;;;;;;;11.13;3.35;;;13.20;84.10;;;;;;5035086;28;20033;-47
2022/10/08 01:06:25;;;;;;;16.05;3.85;;;13.10;84.50;;;;;;5019039;28;20041;-45
2022/10/08 01:08:53;;;;;;;12.20;3.45;;;13.10;85.30;;;;;;4971168;28;20342;-53
2022/10/08 01:11:44;;;;;;;16.17;4.30;;;13.00;86.50;;;;;;4972574;28;20031;-53
2022/10/08 01:14:44;;;;;;;13.95;4.05;;;12.90;87.50;;;;;;4968929;28;20038;-56
2022/10/08 01:17:24;;;;;;;13.45;4.32;;;12.80;88.00;;;;;;4955642;28;20037;-58
2022/10/08 01:19:58;;;;;;;11.25;4.63;;;12.60;88.60;;;;;;4972092;28;20035;-58
2022/10/08 01:22:55;;;;;;;10.57;4.63;;;12.60;88.90;;;;;;4972491;28;20163;-56
2022/10/08 01:25:34;;;;;;;10.75;4.50;;;12.50;89.40;;;;;;4968752;28;20431;-58
2022/10/08 01:28:03;;;;;;;15.13;5.15;;;12.40;89.70;;;;;;4972322;28;20031;-57
2022/10/08 01:30:34;;;;;;;15.40;4.45;;;12.40;89.80;;;;;;4967712;28;20031;-58
2022/10/08 01:33:18;;;;;;;13.07;4.80;;;12.40;90.00;;;;;;4971391;28;20797;-59
2022/10/08 01:35:52;;;;;;;14.93;4.20;;;12.30;90.20;;;;;;4956555;28;20055;-61
2022/10/08 01:38:22;;;;;;;11.40;5.35;;;12.30;90.20;;;;;;4936523;29;20420;-58
2022/10/08 01:40:51;;;;;;;13.63;5.15;;;12.30;90.30;;;;;;5028670;28;20081;-58
2022/10/08 01:43:22;;;;;;;14.48;6.15;;;12.30;90.40;;;;;;5032159;28;20065;-56
2022/10/08 01:46:04;;;;;;;15.48;5.45;;;12.20;90.60;;;;;;5027533;28;20041;-55
2022/10/08 01:48:34;;;;;;;8.00;4.45;;;12.20;90.60;;;;;;5032576;28;20029;-58
2022/10/08 01:51:35;;;;;;;10.80;5.20;;;12.20;90.70;;;;;;5032330;28;20036;-58
2022/10/08 01:54:08;;;;;;;13.30;5.55;;;12.30;90.80;;;;;;5031880;28;20042;-56
2022/10/08 01:56:38;;;;;;;15.13;5.85;;;12.20;90.80;;;;;;5011232;28;20022;-56
2022/10/08 01:59:31;;;;;;;11.38;4.72;;;12.20;90.80;;;;;;5013088;28;20060;-55
2022/10/08 02:02:18;;;;;;;16.45;5.47;;;12.20;91.10;;;;;;5032790;28;20027;-57
2022/10/08 02:04:46;;;;;;;12.65;5.30;;;12.20;91.10;;;;;;5015189;28;20022;-57
2022/10/08 02:07:19;;;;;;;17.10;5.95;;;12.20;91.20;;;;;;5024463;28;20030;-56
2022/10/08 02:09:51;;;;;;;11.77;6.35;;;12.20;91.30;;;;;;5032147;28;20030;-57
2022/10/08 02:12:21;;;;;;;9.93;6.05;;;12.20;91.40;;;;;;5031977;28;20061;-59
2022/10/08 02:14:50;;;;;;;14.43;7.13;;;12.20;91.50;;;;;;4988881;28;20033;-59
2022/10/08 02:17:34;;;;;;;11.50;7.00;;;12.20;91.60;;;;;;5031501;28;20068;-59
2022/10/08 02:20:23;;;;;;;12.75;6.10;;;12.20;91.60;;;;;;5029575;28;20025;-57
2022/10/08 02:22:58;;;;;;;13.95;6.45;;;12.20;91.80;;;;;;5020443;28;20026;-58
2022/10/08 02:25:33;;;;;;;16.25;6.22;;;12.20;91.90;;;;;;5012348;28;20018;-58
2022/10/08 02:28:13;;;;;;;12.98;6.60;;;12.20;91.90;;;;;;5011854;28;20026;-54
2022/10/08 02:30:49;;;;;;;12.30;5.43;;;12.20;92.10;;;;;;5012884;28;20045;-58
2022/10/08 02:33:30;;;;;;;13.55;5.72;;;12.20;92.10;;;;;;5010459;28;20064;-53
2022/10/08 02:35:59;;;;;;;9.13;5.47;;;12.20;92.10;;;;;;5031166;28;20519;-58
2022/10/08 02:38:43;;;;;;;15.52;6.90;;;12.20;92.20;;;;;;5032454;28;20102;-59
2022/10/08 02:41:12;;;;;;;12.95;6.13;;;12.30;92.10;;;;;;5029444;28;20026;-57
2022/10/08 02:43:46;;;;;;;12.52;5.40;;;12.20;92.10;;;;;;5028728;28;20462;-59
2022/10/08 02:46:19;;;;;;;11.13;5.53;;;12.20;92.00;;;;;;5032046;28;20359;-58
2022/10/08 02:48:51;;;;;;;11.65;5.30;;;12.20;92.10;;;;;;5034665;28;20025;-57
2022/10/08 02:51:18;;;;;;;13.05;5.97;;;12.20;92.10;;;;;;5017414;28;20035;-58
2022/10/08 02:53:48;;;;;;;10.88;5.70;;;12.10;91.90;;;;;;5034398;28;20057;-58
2022/10/08 02:56:19;;;;;;;13.85;5.50;;;12.10;91.90;;;;;;5034012;28;20112;-55
2022/10/08 02:58:46;;;;;;;13.77;5.78;;;12.00;92.00;;;;;;5026545;28;20095;-55
2022/10/08 03:01:31;;;;;;;15.40;5.55;;;12.00;92.00;;;;;;5033374;28;20045;-53
2022/10/08 03:04:16;;;;;;;13.55;6.55;;;12.00;92.00;;;;;;5034657;28;20103;-57
2022/10/08 03:06:41;;;;;;;10.30;5.30;;;11.90;92.00;;;;;;5034495;28;20036;-54
2022/10/08 03:09:11;;;;;;;15.38;5.30;;;11.90;92.00;;;;;;5034660;28;20044;-55
2022/10/08 03:11:43;;;;;;;9.80;5.28;;;11.90;92.00;;;;;;5029830;28;20040;-56
2022/10/08 03:14:12;;;;;;;10.32;4.57;;;11.90;92.10;;;;;;5025839;28;20026;-56
2022/10/08 03:16:45;;;;;;;11.30;5.40;;;11.80;92.00;;;;;;5026489;28;20505;-52
2022/10/08 03:19:14;;;;;;;11.40;5.00;;;11.80;92.10;;;;;;5050835;28;20030;-58
2022/10/08 03:21:44;;;;;;;13.55;5.75;;;11.80;92.10;;;;;;5034406;28;20458;-54
2022/10/08 03:24:12;;;;;;;;;;;11.80;92.10;;;;;;5033228;28;20049;-58
2022/10/08 03:26:39;;;;;;;12.45;4.53;;;11.70;92.20;;;;;;5017327;28;19945;-58
2022/10/08 03:29:06;;;;;;;10.40;5.65;;;11.80;92.30;;;;;;5015330;28;20038;-52
2022/10/08 03:31:33;;;;;;;11.75;5.00;;;11.80;92.40;;;;;;5023401;28;20034;-52
2022/10/08 03:34:01;;;;;;;11.05;4.30;;;11.90;92.50;;;;;;5029336;28;20101;-58
2022/10/08 03:36:28;;;;;;;14.07;4.78;;;11.90;92.50;;;;;;5039976;28;20028;-60
2022/10/08 03:38:56;;;;;;;11.18;4.47;;;11.90;92.60;;;;;;5051544;28;20446;-55
2022/10/08 03:41:24;;;;;;;14.95;5.30;;;12.00;92.60;;;;;;5048659;28;20032;-59
2022/10/08 03:43:51;;;;;;;15.32;4.82;;;11.90;92.60;;;;;;5054534;28;20450;-59
2022/10/08 03:46:17;;;;;;;12.05;3.95;;;12.00;92.50;;;;;;5053338;28;20036;-61
2022/10/08 03:48:47;;;;;;;11.25;3.75;;;12.00;92.50;;;;;;5053026;28;20434;-58
2022/10/08 03:51:14;;;;;;;;;;;12.00;92.60;;;;;;5037634;28;20029;-59
2022/10/08 03:53:44;;;;;;;9.43;4.10;;;12.00;92.70;;;;;;5053206;28;20250;-59
2022/10/08 03:56:16;;;;;;;14.10;4.88;;;12.00;92.60;;;;;;5035636;28;20026;-59
2022/10/08 03:58:44;;;;;;;14.73;4.72;;;12.00;92.60;;;;;;5052943;28;20029;-59
2022/10/08 04:01:18;;;;;;;15.68;4.78;;;12.00;92.60;;;;;;5052892;28;20037;-59
2022/10/08 04:03:45;;;;;;;9.90;3.88;;;11.90;92.50;;;;;;5054349;28;20094;-59
2022/10/08 04:06:12;;;;;;;10.02;4.10;;;11.90;92.50;;;;;;5054474;28;20024;-59
2022/10/08 04:08:42;;;;;;;7.97;3.92;;;11.90;92.50;;;;;;5054427;28;20036;-55
2022/10/08 04:11:14;;;;;;;10.52;3.97;;;11.80;92.40;;;;;;5053005;28;20462;-58
2022/10/08 04:13:42;;;;;;;8.90;3.55;;;11.70;92.40;;;;;;5046140;28;20037;-57
2022/10/08 04:16:15;;;;;;;12.77;4.38;;;11.70;92.40;;;;;;5043900;28;20033;-55
2022/10/08 04:18:42;;;;;;;8.45;3.40;;;11.60;92.40;;;;;;5032207;28;20039;-57
2022/10/08 04:21:15;;;;;;;8.93;4.32;;;11.60;92.40;;;;;;5031273;28;20029;-55
2022/10/08 04:23:43;;;;;;;13.13;4.28;;;11.60;92.40;;;;;;5021642;28;20396;-58
2022/10/08 04:26:12;;;;;;;8.50;3.78;;;11.50;92.40;;;;;;5054024;28;20397;-57
2022/10/08 04:28:40;;;;;;;9.40;3.33;;;11.50;92.50;;;;;;5052212;28;20032;-57
2022/10/08 04:31:11;;;;;;;10.38;4.07;;;11.50;92.50;;;;;;5051939;28;20463;-60
2022/10/08 04:33:41;;;;;;;9.93;4.07;;;11.50;92.60;;;;;;5052442;28;20029;-59
2022/10/08 04:36:10;;;;;;;10.85;3.38;;;11.50;92.60;;;;;;5049463;28;20434;-60
2022/10/08 04:38:37;;;;;;;;;;;11.60;92.60;;;;;;5031337;28;20351;-60
2022/10/08 04:41:14;;;;;;;8.98;2.55;;;11.50;92.60;;;;;;5035813;28;20381;-59
2022/10/08 04:43:45;;;;;;;8.90;3.03;;;11.60;92.60;;;;;;5047859;28;20025;-58
2022/10/08 04:46:15;;;;;;;9.10;2.75;;;11.50;92.50;;;;;;5043336;28;20633;-58
2022/10/08 04:48:52;;;;;;;7.72;2.47;;;11.50;92.30;;;;;;5046214;28;20021;-59
2022/10/08 04:51:23;;;;;;;7.78;2.20;;;11.50;92.40;;;;;;5044664;28;20025;-59
2022/10/08 04:53:54;;;;;;;8.43;2.45;;;11.50;92.40;;;;;;5049212;28;20017;-57
2022/10/08 04:56:24;;;;;;;9.05;2.85;;;11.50;92.40;;;;;;5043724;28;20053;-58
2022/10/08 04:58:54;;;;;;;10.75;3.05;;;11.40;92.40;;;;;;5043243;28;20430;-58
2022/10/08 05:01:23;;;;;;;13.90;3.63;;;11.50;92.30;;;;;;5046851;28;20125;-55
2022/10/08 05:03:50;;;;;;;13.45;3.10;;;11.40;92.40;;;;;;5050667;28;20617;-55
2022/10/08 05:06:19;;;;;;;12.57;3.20;;;11.40;92.50;;;;;;5036137;28;20794;-56
2022/10/08 05:08:47;;;;;;;9.93;3.00;;;11.40;92.40;;;;;;5052379;28;20028;-54
2022/10/08 05:11:15;;;;;;;7.35;3.17;;;11.40;92.40;;;;;;5052152;28;20449;-56
2022/10/08 05:13:42;;;;;;;11.30;3.65;;;11.30;92.40;;;;;;5052178;28;20036;-54
2022/10/08 05:16:11;;;;;;;12.32;3.28;;;11.30;92.30;;;;;;5052170;28;20029;-57
2022/10/08 05:18:39;;;;;;;11.35;3.53;;;11.30;92.40;;;;;;5048451;28;20060;-57
2022/10/08 05:21:10;;;;;;;10.77;2.97;;;11.20;92.40;;;;;;5053152;28;20469;-56
2022/10/08 05:23:37;;;;;;;11.50;4.00;;;11.20;92.40;;;;;;5052970;28;20044;-53
2022/10/08 05:26:10;;;;;;;10.48;3.03;;;11.10;92.30;;;;;;5033272;28;20033;-57
2022/10/08 05:28:36;;;;;;;11.20;2.92;;;11.10;92.40;;;;;;5051815;28;20029;-57
2022/10/08 05:31:03;;;;;;;11.60;3.33;;;11.10;92.30;;;;;;5053090;28;20152;-55
2022/10/08 05:33:30;;;;;;;9.27;3.15;;;11.00;92.40;;;;;;5050734;28;20106;-54
2022/10/08 05:36:00;;;;;;;7.43;2.78;;;11.00;92.50;;;;;;5053022;28;20041;-54
2022/10/08 05:38:28;;;;;;;10.07;2.90;;;11.00;92.50;;;;;;5052597;28;20036;-56
2022/10/08 05:41:05;;;;;;;11.00;2.70;;;11.00;92.40;;;;;;5041016;28;20156;-55
2022/10/08 05:43:40;;;;;;;3.88;1.98;;;11.00;92.30;;;;;;5025357;28;20037;-55
2022/10/08 05:46:07;;;;;;;8.10;2.78;;;10.90;92.30;;;;;;5045955;28;20021;-57
2022/10/08 05:48:33;;;;;;;8.27;3.25;;;10.90;92.30;;;;;;5051036;28;20033;-58
2022/10/08 05:51:13;;;;;;;8.30;3.20;;;10.90;92.30;;;;;;5032604;28;20499;-58
2022/10/08 05:53:43;;;;;;;7.82;2.67;;;10.90;92.40;;;;;;5040329;28;20038;-57
2022/10/08 05:56:10;;;;;;;10.55;3.42;;;10.90;92.30;;;;;;5040015;28;20048;-58
2022/10/08 05:58:38;;;;;;;9.43;3.17;;;10.90;92.40;;;;;;5048570;28;20039;-56
2022/10/08 06:01:07;;;;;;;8.18;2.78;;;10.90;92.30;;;;;;5045228;28;20043;-58
2022/10/08 06:03:33;;;;;;;7.78;2.83;;;10.90;92.30;;;;;;5051385;28;20032;-57
2022/10/08 06:06:05;;;;;;;10.20;3.00;;;10.90;92.40;;;;;;5051723;28;20079;-56
2022/10/08 06:08:35;;;;;;;7.50;2.95;;;10.90;92.30;;;;;;5052565;28;20112;-57
2022/10/08 06:11:03;;;;;;;9.13;3.25;;;10.90;92.40;;;;;;5051285;28;20033;-55
2022/10/08 06:13:36;;;;;;;10.85;3.38;;;10.90;92.30;;;;;;5047829;28;20111;-58
2022/10/08 06:16:21;;;;;;;8.07;2.70;;;10.80;92.30;;;;;;5043183;28;20021;-56
2022/10/08 06:18:48;;;;;;;12.77;3.33;;;10.80;92.40;;;;;;5049851;28;20118;-58
2022/10/08 06:21:21;;;;;;;10.32;3.33;;;10.80;92.30;;;;;;5051974;28;20036;-58
2022/10/08 06:23:53;;;;;;;12.60;3.50;;;10.80;92.50;;;;;;5055454;28;20025;-58
2022/10/08 06:26:22;;;;;;;10.10;3.40;;;10.90;92.50;;;;;;5055213;28;20029;-58
2022/10/08 06:28:51;;;;;;;9.20;3.33;;;10.90;92.50;;;;;;5050837;28;20029;-58
2022/10/08 06:31:20;;;;;;;6.82;2.97;;;10.90;92.40;;;;;;5028863;28;20478;-56
2022/10/08 06:33:46;;;;;;;6.53;3.30;;;10.90;92.40;;;;;;5054835;28;20033;-58
2022/10/08 06:36:18;;;;;;;9.13;2.90;;;10.90;92.60;;;;;;5033039;28;20037;-57
2022/10/08 06:38:58;;;;;;;7.38;2.92;;;11.00;92.50;;;;;;5047941;28;20461;-55
2022/10/08 06:41:32;;;;;;;9.70;3.08;;;11.00;92.50;;;;;;5054335;28;20501;-57
2022/10/08 06:44:05;;;;;;;11.13;2.67;;;11.00;92.30;;;;;;5032273;28;20137;-57
2022/10/08 06:46:32;;;;;;;8.55;3.60;;;11.10;92.10;;;;;;5054653;28;20025;-55
2022/10/08 06:49:04;;;;;;;7.95;3.42;;;11.10;92.10;;;;;;5053578;28;20060;-58
2022/10/08 06:51:31;;;;;;;12.85;3.97;;;11.10;92.10;;;;;;5051614;28;20459;-58
2022/10/08 06:53:59;;;;;;;13.00;4.57;;;11.10;92.00;;;;;;5054722;28;20044;-56
2022/10/08 06:56:25;;;;;;;14.75;5.00;;;11.10;92.10;;;;;;5054791;28;20035;-56
2022/10/08 06:58:53;;;;;;;15.65;3.55;;;11.20;92.10;;;;;;5054042;28;20104;-52
2022/10/08 07:01:37;;;;;;;9.95;3.63;;;11.20;92.20;;;;;;5053371;28;20096;-55
2022/10/08 07:04:05;;;;;;;10.05;3.28;;;11.40;92.40;;;;;;5052515;28;20334;-54
2022/10/08 07:06:32;;;;;;;9.45;2.95;;;11.50;92.30;;;;;;5054164;28;20033;-57
2022/10/08 07:09:01;;;;;;;10.82;3.28;;;11.50;91.80;;;;;;5053728;28;20063;-58
2022/10/08 07:11:27;;;;;;;5.72;2.28;;;11.50;91.60;;;;;;5060746;28;20025;-59
2022/10/08 07:13:55;;;;;;;5.82;1.85;;;11.40;91.30;;;;;;5053324;28;20092;-56
2022/10/08 07:16:24;;;;;;;11.23;2.17;;;11.40;91.20;;;;;;5055511;28;20387;-56
2022/10/08 07:18:52;;;;;;;9.70;1.90;;;11.40;91.00;;;;;;5037450;28;20052;-57
2022/10/08 07:21:20;;;;;;;9.73;1.92;;;11.40;90.90;;;;;;5053439;28;20484;-57
2022/10/08 07:23:48;;;;;;;4.18;1.77;;;11.40;90.60;;;;;;5053053;28;20492;-59
2022/10/08 07:26:21;;;;;;;6.45;1.30;;;11.40;90.40;;;;;;5046567;28;20029;-58
2022/10/08 07:28:53;;;;;;;6.45;1.85;;;11.40;90.10;;;;;;5053591;28;20361;-57
2022/10/08 07:31:22;;;;;;;4.75;1.20;;;11.60;90.10;;;;;;5035486;28;20124;-56
2022/10/08 07:33:49;;;;;;;3.10;1.10;;;11.70;89.70;;;;;;5053746;28;20108;-56
2022/10/08 07:36:18;;;;;;;13.80;3.22;;;12.10;89.80;;;;;;5052748;28;20126;-57
2022/10/08 07:38:46;;;;;;;8.67;1.63;;;12.40;89.20;;;;;;5052883;28;20035;-50
2022/10/08 07:41:16;;;;;;;10.80;1.98;;;12.90;88.70;;;;;;5051750;28;20057;-54
2022/10/08 07:43:43;;;;;;;6.93;1.50;;;13.10;88.20;;;;;;5054176;28;20028;-54
2022/10/08 07:46:11;;;;;;;5.95;1.70;;;13.10;86.70;;;;;;5053259;28;20061;-53
2022/10/08 07:48:38;;;;;;;7.82;2.15;;;13.00;86.60;;;;;;5053197;28;20028;-52
2022/10/08 07:51:18;;;;;;;6.30;1.70;;;12.90;86.90;;;;;;5024642;28;20029;-50
2022/10/08 07:53:48;;;;;;;8.85;1.70;;;12.70;86.90;;;;;;5051076;28;20445;-54
2022/10/08 07:56:17;;;;;;;5.28;1.92;;;12.70;86.80;;;;;;5052537;28;20037;-51
2022/10/08 07:58:46;;;;;;;5.50;2.38;;;12.70;87.20;;;;;;5051453;28;20135;-53
2022/10/08 08:01:25;;;;;;;10.00;2.17;;;13.00;87.40;;;;;;5046475;28;20034;-54
2022/10/08 08:03:54;;;;;;;14.13;4.00;;;13.20;87.40;;;;;;5039617;28;20033;-48
2022/10/08 08:06:24;;;;;;;11.85;2.65;;;13.40;86.50;;;;;;5043188;28;20040;-49
2022/10/08 08:08:51;;;;;;;6.70;2.05;;;13.40;85.90;;;;;;5044841;28;20213;-47
2022/10/08 08:11:21;;;;;;;5.97;2.00;;;13.60;85.50;;;;;;5042926;28;20025;-49
2022/10/08 08:13:48;;;;;;;7.20;1.40;;;13.70;85.80;;;;;;5041019;28;20029;-49
2022/10/08 08:16:20;;;;;;;9.73;2.00;;;13.90;85.30;;;;;;5034846;28;20079;-47
2022/10/08 08:18:49;;;;;;;11.05;2.42;;;14.00;84.80;;;;;;5023565;28;20025;-45
2022/10/08 08:21:19;;;;;;;8.25;2.00;;;14.30;84.90;;;;;;5053921;28;20035;-45
2022/10/08 08:23:49;;;;;;;7.20;2.00;;;14.40;84.40;;;;;;5034484;28;20057;-46
2022/10/08 08:26:18;;;;;;;8.10;2.10;;;14.30;83.00;;;;;;5027525;28;20503;-46
2022/10/08 08:28:44;;;;;;;8.30;1.90;;;14.30;83.00;;;;;;5031483;28;20164;-46
2022/10/08 08:31:12;;;;;;;11.55;3.15;;;14.30;83.40;;;;;;5051856;28;20075;-47
2022/10/08 08:33:39;;;;;;;9.98;2.03;;;14.40;83.30;;;;;;5052337;28;20024;-48
2022/10/08 08:36:07;;;;;;;8.43;2.08;;;14.40;83.40;;;;;;5052118;28;20374;-48
2022/10/08 08:38:36;;;;;;;9.25;2.78;;;14.40;83.10;;;;;;5049800;28;20036;-48
2022/10/08 08:41:37;;;;;;;9.93;1.60;;;14.40;83.00;;;;;;5035885;28;20039;-47
2022/10/08 08:44:14;;;;;;;4.85;1.77;;;14.60;83.40;;;;;;5045876;28;20035;-51
2022/10/08 08:46:45;;;;;;;12.27;2.55;;;14.50;83.00;;;;;;5032244;28;20469;-50
2022/10/08 08:49:34;;;;;;;12.50;2.40;;;14.30;83.00;;;;;;5035113;28;20117;-45
2022/10/08 08:52:03;;;;;;;8.25;2.88;;;13.90;83.60;;;;;;5027035;28;20029;-45
2022/10/08 08:54:31;;;;;;;7.50;1.97;;;13.60;84.50;;;;;;5016642;28;20187;-45
2022/10/08 08:57:32;;;;;;;11.07;2.45;;;13.40;85.20;;;;;;5045121;28;20104;-50
2022/10/08 09:00:29;;;;;;;8.40;1.77;;;13.30;85.30;;;;;;5027355;28;20432;-51
2022/10/08 09:03:04;;;;;;;7.50;2.67;;;13.30;85.40;;;;;;5050325;28;20044;-50
2022/10/08 09:05:36;;;;;;;8.32;2.03;;;13.30;85.90;;;;;;4985593;28;20033;-50
2022/10/08 09:08:34;;;;;;;10.50;2.10;;;13.30;86.00;;;;;;5026405;28;20029;-62
2022/10/08 09:11:03;;;;;;;8.15;1.70;;;13.20;86.40;;;;;;5026188;28;20033;-57
2022/10/08 09:13:42;;;;;;;7.65;1.70;;;13.00;86.20;;;;;;5003047;28;20453;-52
2022/10/08 09:16:15;;;;;;;5.90;1.30;;;12.80;86.30;;;;;;5051897;28;20465;-56
2022/10/08 09:18:50;;;;;;;6.63;1.30;;;12.40;85.90;;;;;;5032971;28;20071;-64
2022/10/08 09:21:18;;;;;;;6.97;1.55;;;12.20;86.70;;;;;;5043257;28;20071;-67
2022/10/08 09:23:46;;;;;;;3.90;1.50;;;11.90;86.90;;;;;;5030759;28;20033;-58
2022/10/08 09:26:35;;;;;;;7.80;1.83;;;11.80;88.00;;;;;;5027831;28;20033;-57
2022/10/08 09:29:04;;;;;;;6.95;1.42;;;11.90;89.10;;;;;;5048129;28;20029;-58
2022/10/08 09:31:48;;;;;;;6.60;1.77;;;12.40;89.80;;;;;;5027604;28;20484;-53
2022/10/08 09:34:20;;;;;;;4.38;1.02;;;12.70;88.70;;;;;;5045655;28;20299;-50
2022/10/08 09:37:12;;;;;;;11.10;1.80;;;13.20;88.30;;;;;;5033986;28;20041;-49
2022/10/08 09:39:59;;;;;;;8.73;1.48;;;13.50;87.30;;;;;;5030124;28;20360;-48
2022/10/08 09:42:25;;;;;;;7.70;1.52;;;13.50;85.40;;;;;;5030574;28;20037;-50
2022/10/08 09:45:02;;;;;;;5.75;1.38;;;13.50;84.80;;;;;;5030783;28;20025;-51
2022/10/08 09:47:31;;;;;;;5.88;1.08;;;13.50;83.80;;;;;;5031671;28;20512;-47
2022/10/08 09:50:22;;;;;;;5.60;1.45;;;13.30;84.40;;;;;;5024706;28;20120;-47
2022/10/08 09:52:50;;;;;;;6.57;1.42;;;13.20;85.00;;;;;;5031680;28;20117;-46
2022/10/08 09:55:34;;;;;;;8.15;1.52;;;13.00;84.70;;;;;;5024620;28;20026;-48
2022/10/08 09:58:04;;;;;;;7.57;1.65;;;13.00;85.20;;;;;;5030750;28;20370;-47
2022/10/08 10:00:38;;;;;;;6.43;1.20;;;13.20;85.90;;;;;;5035315;28;20041;-47
2022/10/08 10:03:15;;;;;;;7.43;1.20;;;13.40;85.90;;;;;;5017728;28;20203;-46
2022/10/08 10:05:48;;;;;;;9.15;1.80;;;13.50;85.80;;;;;;5034258;28;20036;-47
2022/10/08 10:08:52;;;;;;;8.15;1.27;;;13.50;85.00;;;;;;5010684;28;20037;-48
2022/10/08 10:11:33;;;;;;;5.25;1.25;;;13.70;85.10;;;;;;5032273;28;20057;-47
2022/10/08 10:14:23;;;;;;;7.15;1.70;;;14.00;85.20;;;;;;5017817;28;20025;-50
2022/10/08 10:17:12;;;;;;;7.32;1.25;;;14.20;84.50;;;;;;5028848;28;20092;-49
2022/10/08 10:19:44;;;;;;;;;;;14.40;83.40;;;;;;5027422;28;20034;-48
2022/10/08 10:22:25;;;;;;;9.50;2.03;;;14.40;82.70;;;;;;5035898;28;20027;-52
2022/10/08 10:25:31;;;;;;;8.05;1.25;;;14.60;82.30;;;;;;5032414;28;20427;-48
2022/10/08 10:28:05;;;;;;;6.45;1.52;;;14.90;82.10;;;;;;5031688;28;20507;-48
2022/10/08 10:30:56;;;;;;;4.47;1.50;;;14.70;81.70;;;;;;5018889;28;20025;-47
2022/10/08 10:33:38;;;;;;;7.57;1.60;;;14.20;82.40;;;;;;5033081;28;20362;-53
2022/10/08 10:36:13;;;;;;;5.80;1.55;;;13.90;82.10;;;;;;5024208;28;20478;-50
2022/10/08 10:39:07;;;;;;;11.77;2.17;;;13.50;82.40;;;;;;5032501;28;20038;-48
2022/10/08 10:41:36;;;;;;;11.57;1.88;;;13.40;82.70;;;;;;4994447;28;20029;-48
2022/10/08 10:44:10;;;;;;;8.25;1.75;;;13.60;83.70;;;;;;5035387;28;20063;-50
2022/10/08 10:46:55;;;;;;;8.52;2.67;;;13.90;83.40;;;;;;5015589;28;20072;-47
2022/10/08 10:49:29;;;;;;;8.93;1.88;;;14.10;83.10;;;;;;5001319;28;20041;-52
2022/10/08 10:52:35;;;;;;;13.73;2.20;;;14.40;83.40;;;;;;5022205;28;20053;-49
2022/10/08 10:55:19;;;;;;;12.82;1.90;;;14.50;83.40;;;;;;5032687;28;20374;-51
2022/10/08 10:57:56;;;;;;;8.82;1.63;;;14.50;81.90;;;;;;5032706;28;20343;-49
2022/10/08 11:00:40;;;;;;;10.05;2.92;;;14.20;80.90;;;;;;5034648;28;20179;-50
2022/10/08 11:03:20;;;;;;;11.65;2.10;;;13.90;81.10;;;;;;5034574;28;20083;-48
2022/10/08 11:05:55;;;;;;;12.57;2.05;;;13.70;79.50;;;;;;5034342;28;20040;-50
2022/10/08 11:08:30;;;;;;;9.10;1.98;;;13.90;79.60;;;;;;5017068;28;20120;-51
2022/10/08 11:11:35;;;;;;;12.60;2.55;;;14.00;77.90;;;;;;5016332;28;20044;-52
2022/10/08 11:14:38;;;;;;;10.73;2.10;;;14.40;79.90;;;;;;5054939;28;20021;-49
2022/10/08 11:17:30;;;;;;;9.18;2.03;;;14.60;77.90;;;;;;5022040;28;20022;-46
2022/10/08 11:20:39;;;;;;;9.73;2.67;;;14.80;76.60;;;;;;5029968;28;20072;-49
2022/10/08 11:23:36;;;;;;;10.55;2.55;;;14.90;77.70;;;;;;4978367;28;20037;-50
2022/10/08 11:26:30;;;;;;;9.60;1.52;;;15.10;77.30;;;;;;5031236;28;20056;-47
2022/10/08 11:29:18;;;;;;;8.43;1.48;;;15.10;75.50;;;;;;5018784;28;20033;-47
2022/10/08 11:31:59;;;;;;;10.38;2.03;;;14.80;75.40;;;;;;5018038;28;20354;-51
2022/10/08 11:34:33;;;;;;;12.75;1.92;;;14.40;75.00;;;;;;5031950;28;20040;-49
2022/10/08 11:37:17;;;;;;;7.45;1.73;;;14.50;75.60;;;;;;5023981;28;20029;-46
2022/10/08 11:40:20;;;;;;;6.95;2.40;;;14.60;72.60;;;;;;5001463;28;20130;-46
2022/10/08 11:43:08;;;;;;;9.07;1.80;;;14.90;73.70;;;;;;5014813;28;20588;-49
2022/10/08 11:45:39;;;;;;;10.27;1.85;;;14.90;72.90;;;;;;5027276;28;20095;-51
2022/10/08 11:48:36;;;;;;;7.55;1.77;;;15.10;74.00;;;;;;5033985;28;20042;-48
2022/10/08 11:51:20;;;;;;;10.82;1.92;;;15.30;74.20;;;;;;5030394;28;20464;-50
2022/10/08 11:54:28;;;;;;;6.20;1.25;;;15.00;70.80;;;;;;5031814;28;20029;-50
2022/10/08 11:57:35;;;;;;;9.98;2.13;;;14.50;71.40;;;;;;5020435;28;20075;-50
2022/10/08 12:00:11;;;;;;;9.23;2.03;;;14.20;73.40;;;;;;4933580;29;20031;-51
2022/10/08 12:02:41;;;;;;;9.25;1.95;;;14.00;74.60;;;;;;4934378;29;20613;-51
2022/10/08 12:05:29;;;;;;;6.10;2.10;;;14.00;75.60;;;;;;4934288;29;20052;-49
2022/10/08 12:07:58;;;;;;;10.82;2.92;;;14.00;75.90;;;;;;4934651;29;20039;-47
2022/10/08 12:10:34;;;;;;;17.47;3.20;;;14.40;76.10;;;;;;4932112;29;20035;-47
2022/10/08 12:13:09;;;;;;;13.57;1.50;;;14.70;75.50;;;;;;4923041;29;20039;-51
2022/10/08 12:15:54;;;;;;;7.85;2.03;;;14.80;71.60;;;;;;4942748;29;20038;-48
2022/10/08 12:18:24;;;;;;;11.73;2.95;;;14.90;72.60;;;;;;4917150;29;20070;-47
2022/10/08 12:21:09;;;;;;;;;;;14.90;71.30;;;;;;4934497;29;20031;-47
2022/10/08 12:23:55;;;;;;;10.75;2.95;;;14.90;67.40;;;;;;4918043;29;20383;-49
2022/10/08 12:26:22;;;;;;;12.80;2.92;;;14.90;67.90;;;;;;4933127;29;20043;-48
2022/10/08 12:28:51;;;;;;;9.68;2.03;;;15.00;69.40;;;;;;4921168;29;20171;-47
2022/10/08 12:31:38;;;;;;;9.20;2.42;;;15.00;69.50;;;;;;4981047;28;20454;-48
2022/10/08 12:34:18;;;;;;;10.32;2.83;;;15.00;72.50;;;;;;5037481;28;20030;-49
2022/10/08 12:37:21;;;;;;;11.52;1.98;;;14.80;73.10;;;;;;5011863;28;20030;-48
2022/10/08 12:39:47;;;;;;;5.05;1.10;;;14.40;71.80;;;;;;5011622;28;20029;-48
2022/10/08 12:42:25;;;;;;;7.93;1.17;;;14.30;71.70;;;;;;5027428;28;20029;-51
2022/10/08 12:45:34;;;;;;;6.35;1.35;;;14.20;70.80;;;;;;5000740;28;20100;-50
2022/10/08 12:48:32;;;;;;;5.75;1.08;;;14.20;69.20;;;;;;5015835;28;20053;-50
2022/10/08 12:51:42;;;;;;;8.97;2.27;;;14.30;69.40;;;;;;5007723;28;20046;-47
2022/10/08 12:54:21;;;;;;;7.10;1.05;;;14.40;70.30;;;;;;5027038;28;20041;-48
2022/10/08 12:56:51;;;;;;;12.85;3.10;;;14.50;70.70;;;;;;5004111;28;20348;-48
2022/10/08 12:59:21;;;;;;;6.68;1.60;;;14.70;72.00;;;;;;5026491;28;21672;-47
2022/10/08 13:01:48;;;;;;;11.98;2.42;;;14.70;72.90;;;;;;5031299;28;20034;-46
2022/10/08 13:04:21;;;;;;;9.82;2.05;;;14.80;72.70;;;;;;5032580;28;20029;-49
2022/10/08 13:06:49;;;;;;;9.75;2.22;;;14.90;72.50;;;;;;5031098;28;20442;-48
2022/10/08 13:09:35;;;;;;;13.63;1.48;;;14.90;73.50;;;;;;5027724;28;20477;-47
2022/10/08 13:12:09;;;;;;;11.98;2.08;;;15.00;71.80;;;;;;5029227;28;20327;-46
2022/10/08 13:14:40;;;;;;;9.27;2.15;;;14.90;71.30;;;;;;5022074;28;20032;-50
2022/10/08 13:17:41;;;;;;;15.88;2.30;;;14.90;70.60;;;;;;4995790;28;20049;-48
2022/10/08 13:20:25;;;;;;;11.77;2.65;;;15.00;70.10;;;;;;4998889;28;20029;-46
2022/10/08 13:22:56;;;;;;;13.90;2.88;;;15.10;70.40;;;;;;5033957;28;20053;-52
2022/10/08 13:25:40;;;;;;;11.05;2.22;;;15.00;70.60;;;;;;5027323;28;20025;-48